Time;durP1;ratioP1;P1;durP2;ratioP2;P2;SDS_P1;SDS_P2;PMS_P1;PMS_P2;Temp;Humidity;BMP_temperature;BMP_pressure;BME280_temperature;BME280_humidity;BME280_pressure;Samples;Min_cycle;Max_cycle;Signal;HPM_P1;HPM_P2
2023/12/19 00:39:08;;;;;;;11.23;6.57;;;;;;;;;;5027581;28;20483;-85
2023/12/19 00:42:13;;;;;;;;;;;;;;;;;;;;;
2023/12/19 00:47:39;;;;;;;10.33;7.13;;;;;;;;;;5048787;28;20561;-85
2023/12/19 00:50:43;;;;;;;12.43;8.20;;;;;;;;;;5035627;28;20585;-85
2023/12/19 00:53:41;;;;;;;8.87;6.50;;;;;;;;;;4974228;28;21315;-84
2023/12/19 00:56:49;;;;;;;9.80;7.17;;;;;;;;;;4998665;28;20469;-85
2023/12/19 00:59:32;;;;;;;9.40;8.20;;;;;;;;;;5031835;28;20485;-85
2023/12/19 01:02:17;;;;;;;9.50;7.00;;;;;;;;;;5018527;28;20564;-84
2023/12/19 01:43:22;;;;;;;10.77;7.83;;;;;;;;;;4997453;28;20439;-84
2023/12/19 01:52:12;;;;;;;10.10;7.20;;;;;;;;;;4930315;29;20467;-86
2023/12/19 01:54:48;;;;;;;8.50;7.40;;;;;;;;;;4994696;28;20471;-84
2023/12/19 01:57:28;;;;;;;11.13;7.60;;;;;;;;;;5001778;28;20466;-86
2023/12/19 02:00:24;;;;;;;12.70;7.97;;;;;;;;;;4966815;28;20472;-86
2023/12/19 02:03:12;;;;;;;10.60;8.00;;;;;;;;;;4963433;28;20489;-86
2023/12/19 02:05:56;;;;;;;12.00;7.80;;;;;;;;;;4965863;28;20539;-86
2023/12/19 02:09:18;;;;;;;9.67;7.57;;;;;;;;;;4967915;28;20462;-85
2023/12/19 02:18:30;;;;;;;10.50;7.80;;;;;;;;;;4905784;29;20596;-85
2023/12/19 02:21:06;;;;;;;9.47;6.47;;;;;;;;;;4985114;28;20464;-86
2023/12/19 02:23:44;;;;;;;8.50;6.93;;;;;;;;;;4973168;28;21212;-85
2023/12/19 02:26:33;;;;;;;8.70;7.10;;;;;;;;;;4975173;28;20461;-85
2023/12/19 02:29:35;;;;;;;9.77;7.17;;;;;;;;;;4975743;28;20463;-83
2023/12/19 02:32:14;;;;;;;8.07;7.10;;;;;;;;;;4987352;28;20514;-85
2023/12/19 02:35:08;;;;;;;9.17;7.50;;;;;;;;;;4990688;28;21406;-84
2023/12/19 02:38:00;;;;;;;9.90;7.83;;;;;;;;;;4943757;28;20448;-85
2023/12/19 02:40:30;;;;;;;8.33;6.07;;;;;;;;;;4970232;28;20831;-85
2023/12/19 02:43:14;;;;;;;8.40;6.47;;;;;;;;;;4969660;28;20484;-85
2023/12/19 02:46:02;;;;;;;8.07;5.80;;;;;;;;;;4962477;28;20465;-84
2023/12/19 02:48:56;;;;;;;8.70;6.73;;;;;;;;;;4979887;28;20467;-85
2023/12/19 02:51:37;;;;;;;7.27;5.87;;;;;;;;;;4963051;28;20501;-84
2023/12/19 02:54:13;;;;;;;8.70;6.30;;;;;;;;;;4981221;28;20473;-84
2023/12/19 02:56:55;;;;;;;7.20;5.00;;;;;;;;;;4982306;28;20453;-83
2023/12/19 02:59:27;;;;;;;8.07;5.30;;;;;;;;;;4977924;28;20483;-83
2023/12/19 03:02:16;;;;;;;9.40;6.73;;;;;;;;;;4964347;28;20475;-86
2023/12/19 03:04:53;;;;;;;6.57;4.83;;;;;;;;;;4963474;28;20470;-83
2023/12/19 03:07:38;;;;;;;;;;;;;;;;;;;;;
2023/12/19 03:10:21;;;;;;;8.43;6.47;;;;;;;;;;4979336;28;20465;-85
2023/12/19 03:13:04;;;;;;;9.27;6.40;;;;;;;;;;4959325;28;20543;-85
2023/12/19 03:15:56;;;;;;;8.53;5.83;;;;;;;;;;4980932;28;20523;-83
2023/12/19 03:18:55;;;;;;;10.03;6.60;;;;;;;;;;4964747;28;20572;-84
2023/12/19 03:21:58;;;;;;;;;;;;;;;;;;;;;
2023/12/19 03:24:39;;;;;;;8.10;6.10;;;;;;;;;;4988281;28;20592;-84
2023/12/19 03:27:16;;;;;;;7.83;5.53;;;;;;;;;;4988236;28;20468;-83
2023/12/19 03:30:23;;;;;;;5.70;5.00;;;;;;;;;;4967235;28;20467;-85
2023/12/19 03:32:53;;;;;;;7.40;5.67;;;;;;;;;;4988126;28;20515;-85
2023/12/19 03:35:43;;;;;;;7.30;5.57;;;;;;;;;;4982927;28;20462;-84
2023/12/19 03:38:35;;;;;;;7.80;5.50;;;;;;;;;;4985927;28;20547;-84
2023/12/19 03:41:25;;;;;;;7.93;4.93;;;;;;;;;;4969112;28;20424;-82
2023/12/19 03:47:01;;;;;;;5.00;4.50;;;;;;;;;;4980021;28;20536;-84
2023/12/19 03:49:40;;;;;;;6.87;5.90;;;;;;;;;;4979654;28;20967;-83
2023/12/19 03:52:22;;;;;;;5.30;4.80;;;;;;;;;;4963077;28;20456;-86
2023/12/19 03:55:03;;;;;;;6.53;5.47;;;;;;;;;;4968696;28;20463;-85
2023/12/19 03:57:50;;;;;;;5.47;4.90;;;;;;;;;;4962682;28;20465;-85
2023/12/19 04:01:01;;;;;;;6.53;4.37;;;;;;;;;;4980763;28;20443;-87
2023/12/19 04:03:35;;;;;;;6.00;4.50;;;;;;;;;;4980191;28;21089;-86
2023/12/19 04:06:28;;;;;;;5.90;4.43;;;;;;;;;;4969466;28;20453;-87
2023/12/19 04:09:10;;;;;;;4.63;4.20;;;;;;;;;;4970730;28;20481;-86
2023/12/19 04:11:47;;;;;;;4.53;4.13;;;;;;;;;;4997896;28;20490;-84
2023/12/19 04:14:29;;;;;;;5.70;4.23;;;;;;;;;;4985385;28;20457;-84
2023/12/19 04:17:13;;;;;;;6.57;4.47;;;;;;;;;;4974809;28;20445;-86
2023/12/19 04:19:54;;;;;;;4.83;3.93;;;;;;;;;;4974986;28;20535;-84
2023/12/19 04:22:28;;;;;;;4.77;4.27;;;;;;;;;;4970062;28;20457;-84
2023/12/19 04:25:27;;;;;;;5.63;4.30;;;;;;;;;;4981603;28;20473;-86
2023/12/19 04:28:07;;;;;;;4.70;3.60;;;;;;;;;;4978722;28;20464;-84
2023/12/19 04:30:41;;;;;;;4.23;3.60;;;;;;;;;;4970007;28;20453;-83
2023/12/19 04:33:47;;;;;;;4.37;3.97;;;;;;;;;;4992589;28;20474;-84
2023/12/19 04:36:40;;;;;;;3.73;3.43;;;;;;;;;;4977894;28;20461;-84
2023/12/19 04:39:15;;;;;;;4.33;3.70;;;;;;;;;;4994844;28;21435;-82
2023/12/19 04:42:17;;;;;;;3.93;3.53;;;;;;;;;;4983064;28;21057;-84
2023/12/19 04:44:59;;;;;;;5.63;4.07;;;;;;;;;;4997173;28;20470;-84
2023/12/19 04:47:37;;;;;;;3.27;3.00;;;;;;;;;;4979821;28;20463;-84
2023/12/19 04:50:32;;;;;;;4.10;3.50;;;;;;;;;;4976205;28;20591;-83
2023/12/19 04:53:14;;;;;;;4.00;2.87;;;;;;;;;;4996968;28;20479;-87
2023/12/19 04:56:02;;;;;;;3.00;2.70;;;;;;;;;;4978601;28;20596;-85
2023/12/19 04:58:45;;;;;;;3.57;2.87;;;;;;;;;;4954303;28;21189;-86
2023/12/19 05:01:30;;;;;;;3.60;2.63;;;;;;;;;;4969103;28;20454;-84
2023/12/19 05:04:05;;;;;;;4.00;3.50;;;;;;;;;;5004451;28;20469;-84
2023/12/19 05:06:54;;;;;;;3.50;3.07;;;;;;;;;;4989115;28;20436;-86
2023/12/19 05:09:55;;;;;;;3.10;2.80;;;;;;;;;;5010749;28;20473;-85
2023/12/19 05:13:01;;;;;;;3.47;3.17;;;;;;;;;;5010570;28;20497;-85
2023/12/19 05:15:35;;;;;;;3.20;2.40;;;;;;;;;;5002720;28;20933;-86
2023/12/19 05:18:22;;;;;;;;;;;;;;;;;;;;;
2023/12/19 05:21:20;;;;;;;3.63;2.87;;;;;;;;;;4992452;28;20520;-84
2023/12/19 05:24:37;;;;;;;4.60;3.37;;;;;;;;;;4997468;28;20477;-86
2023/12/19 05:27:45;;;;;;;3.80;2.83;;;;;;;;;;5003929;28;20457;-85
2023/12/19 05:30:43;;;;;;;8.97;4.00;;;;;;;;;;4971646;28;20464;-87
2023/12/19 05:33:51;;;;;;;4.83;3.70;;;;;;;;;;4973253;28;20485;-84
2023/12/19 05:36:51;;;;;;;4.00;3.37;;;;;;;;;;4969780;28;20441;-84
2023/12/19 05:39:34;;;;;;;4.90;3.80;;;;;;;;;;4965552;28;20568;-83
2023/12/19 05:42:20;;;;;;;4.37;3.37;;;;;;;;;;4951967;28;20466;-86
2023/12/19 05:45:37;;;;;;;;;;;;;;;;;;;;;
2023/12/19 05:48:40;;;;;;;4.70;3.27;;;;;;;;;;4968789;28;20446;-86
2023/12/19 05:51:34;;;;;;;4.03;2.87;;;;;;;;;;4947175;28;20461;-84
2023/12/19 05:54:58;;;;;;;3.80;3.10;;;;;;;;;;4960936;28;20463;-84
2023/12/19 05:57:39;;;;;;;4.57;3.27;;;;;;;;;;4981243;28;20461;-86
2023/12/19 06:00:30;;;;;;;4.17;3.73;;;;;;;;;;4983939;28;20860;-86
2023/12/19 06:09:16;;;;;;;4.70;3.33;;;;;;;;;;3287766;26;20496;-86
2023/12/19 06:12:06;;;;;;;4.97;3.97;;;;;;;;;;5008008;28;20468;-85
2023/12/19 06:14:47;;;;;;;4.97;4.47;;;;;;;;;;5006013;28;20553;-83
2023/12/19 06:18:07;;;;;;;5.83;3.60;;;;;;;;;;5004186;28;21296;-83
2023/12/19 06:21:00;;;;;;;5.50;4.33;;;;;;;;;;4987300;28;20483;-85
2023/12/19 06:23:44;;;;;;;5.57;3.90;;;;;;;;;;5001965;28;20471;-86
2023/12/19 06:26:49;;;;;;;4.87;3.70;;;;;;;;;;4991138;28;21167;-83
2023/12/19 06:29:30;;;;;;;3.50;3.20;;;;;;;;;;4990259;28;20470;-84
2023/12/19 06:32:47;;;;;;;;;;;;;;;;;;;;;
2023/12/19 06:35:57;;;;;;;;;;;;;;;;;;;;;
2023/12/19 06:39:22;;;;;;;4.40;3.83;;;;;;;;;;5019761;28;20454;-82
2023/12/19 06:42:31;;;;;;;4.50;3.97;;;;;;;;;;4957710;28;20456;-83
2023/12/19 06:45:13;;;;;;;;;;;;;;;;;;;;;
2023/12/19 06:47:58;;;;;;;4.13;3.73;;;;;;;;;;5018496;28;20540;-86
2023/12/19 06:51:07;;;;;;;4.47;3.47;;;;;;;;;;4998675;28;20494;-85
2023/12/19 06:54:24;;;;;;;3.60;3.10;;;;;;;;;;5005192;28;20479;-83
2023/12/19 06:57:08;;;;;;;6.83;3.30;;;;;;;;;;5014900;28;20478;-84
2023/12/19 07:00:07;;;;;;;;;;;;;;;;;;;;;
2023/12/19 07:02:50;;;;;;;4.77;4.00;;;;;;;;;;5007553;28;20484;-84
2023/12/19 07:05:57;;;;;;;4.50;3.77;;;;;;;;;;4989687;28;20437;-87
2023/12/19 07:15:25;;;;;;;4.70;3.23;;;;;;;;;;5011222;28;20473;-84
2023/12/19 07:18:28;;;;;;;1.83;1.73;;;;;;;;;;4998968;28;20463;-85
2023/12/19 07:21:25;;;;;;;4.47;2.97;;;;;;;;;;4987865;28;20535;-83
2023/12/19 07:30:33;;;;;;;3.37;2.60;;;;;;;;;;5016152;28;21030;-85
2023/12/19 07:33:41;;;;;;;3.47;2.77;;;;;;;;;;5010736;28;20490;-82
2023/12/19 07:36:37;;;;;;;3.30;2.90;;;;;;;;;;5019393;28;20851;-84
2023/12/19 07:42:47;;;;;;;2.90;2.50;;;;;;;;;;5008982;28;20443;-82
2023/12/19 07:45:27;;;;;;;2.80;2.60;;;;;;;;;;4993673;28;20463;-85
2023/12/19 07:48:17;;;;;;;2.93;2.63;;;;;;;;;;5007209;28;20519;-85
2023/12/19 07:58:10;;;;;;;3.83;2.83;;;;;;;;;;4973890;28;20434;-85
2023/12/19 08:01:04;;;;;;;2.27;2.07;;;;;;;;;;4988694;28;20519;-82
2023/12/19 08:04:00;;;;;;;3.67;3.00;;;;;;;;;;4986394;28;20475;-84
2023/12/19 08:06:41;;;;;;;3.97;2.43;;;;;;;;;;5002035;28;20448;-84
2023/12/19 08:09:29;;;;;;;3.10;2.53;;;;;;;;;;4987697;28;20635;-85
2023/12/19 08:16:14;;;;;;;;;;;;;;;;;;;;;
2023/12/19 08:19:45;;;;;;;5.00;2.47;;;;;;;;;;4908046;28;20438;-84
2023/12/19 08:26:05;;;;;;;2.70;2.37;;;;;;;;;;4992958;28;20421;-85
2023/12/19 08:28:44;;;;;;;3.20;2.90;;;;;;;;;;5001742;28;20452;-85
2023/12/19 08:31:51;;;;;;;3.07;2.80;;;;;;;;;;4987658;28;20446;-84
2023/12/19 08:34:47;;;;;;;3.03;2.83;;;;;;;;;;4989279;28;20496;-86
2023/12/19 08:37:40;;;;;;;2.60;2.33;;;;;;;;;;5002518;28;21080;-85
2023/12/19 08:40:27;;;;;;;3.90;2.03;;;;;;;;;;5004949;28;21004;-84
2023/12/19 08:43:10;;;;;;;3.20;2.27;;;;;;;;;;4998736;28;20531;-83
2023/12/19 08:46:03;;;;;;;2.63;2.43;;;;;;;;;;4994850;28;20740;-83
2023/12/19 08:48:40;;;;;;;2.80;2.10;;;;;;;;;;5016170;28;20446;-83
2023/12/19 08:51:53;;;;;;;2.37;2.13;;;;;;;;;;5007358;28;20436;-84
2023/12/19 08:54:40;;;;;;;;;;;;;;;;;;;;;
2023/12/19 08:57:30;;;;;;;3.07;2.00;;;;;;;;;;5000061;28;20520;-84
2023/12/19 09:00:21;;;;;;;4.10;1.60;;;;;;;;;;4991176;28;20499;-84
2023/12/19 09:03:38;;;;;;;;;;;;;;;;;;;;;
2023/12/19 09:06:27;;;;;;;3.00;2.70;;;;;;;;;;4984255;28;20469;-85
2023/12/19 09:09:27;;;;;;;1.90;1.80;;;;;;;;;;4988246;28;20694;-84
2023/12/19 09:12:16;;;;;;;2.77;2.20;;;;;;;;;;4997838;28;20462;-85
2023/12/19 09:14:56;;;;;;;1.83;1.73;;;;;;;;;;4995642;28;20453;-85
2023/12/19 09:18:06;;;;;;;4.83;2.10;;;;;;;;;;5003561;28;20464;-85
2023/12/19 09:21:12;;;;;;;6.17;2.23;;;;;;;;;;4914709;29;20535;-83
2023/12/19 09:23:50;;;;;;;2.37;1.80;;;;;;;;;;4909248;28;20475;-85
2023/12/19 09:26:33;;;;;;;3.77;2.80;;;;;;;;;;4946889;28;21185;-87
2023/12/19 09:29:17;;;;;;;2.30;2.10;;;;;;;;;;4944539;28;20455;-86
2023/12/19 09:32:00;;;;;;;;;;;;;;;;;;;;;
2023/12/19 09:34:51;;;;;;;2.37;2.17;;;;;;;;;;4941934;28;20455;-83
2023/12/19 09:37:52;;;;;;;3.07;2.50;;;;;;;;;;4933997;28;20449;-84
2023/12/19 09:40:34;;;;;;;2.30;1.93;;;;;;;;;;4957459;28;20480;-83
2023/12/19 09:46:38;;;;;;;2.87;2.30;;;;;;;;;;4930142;28;20459;-83
2023/12/19 09:55:47;;;;;;;2.00;1.87;;;;;;;;;;4948811;28;20489;-82
2023/12/19 09:58:28;;;;;;;4.27;3.03;;;;;;;;;;4993040;28;20455;-84
2023/12/19 10:01:18;;;;;;;4.30;2.73;;;;;;;;;;4982655;28;21773;-86
2023/12/19 10:04:08;;;;;;;4.10;2.83;;;;;;;;;;5011909;28;20488;-84
2023/12/19 10:10:50;;;;;;;7.80;2.80;;;;;;;;;;5010838;28;20515;-86
2023/12/19 10:13:41;;;;;;;2.70;2.50;;;;;;;;;;4931631;28;20476;-84
2023/12/19 10:16:49;;;;;;;3.63;2.40;;;;;;;;;;4923775;29;20495;-84
2023/12/19 10:19:44;;;;;;;;;;;;;;;;;;;;;
2023/12/19 10:22:31;;;;;;;2.10;1.90;;;;;;;;;;4922170;29;20870;-82
2023/12/19 10:25:38;;;;;;;2.87;1.80;;;;;;;;;;4922619;29;20460;-84
2023/12/19 10:28:42;;;;;;;2.50;2.10;;;;;;;;;;4869322;29;20439;-83
2023/12/19 10:31:21;;;;;;;2.03;1.80;;;;;;;;;;4872781;29;20464;-85
2023/12/19 10:37:45;;;;;;;2.13;1.60;;;;;;;;;;4870477;29;20573;-84
2023/12/19 10:40:29;;;;;;;2.57;1.53;;;;;;;;;;4872863;29;20517;-83
2023/12/19 10:43:42;;;;;;;2.97;2.00;;;;;;;;;;4874429;28;20476;-86
2023/12/19 10:47:13;;;;;;;;;;;;;;;;;;;;;
2023/12/19 10:50:39;;;;;;;6.03;2.17;;;;;;;;;;4943126;28;20477;-86
2023/12/19 10:53:30;;;;;;;4.10;2.03;;;;;;;;;;4940636;28;20474;-85
2023/12/19 10:56:14;;;;;;;1.67;1.57;;;;;;;;;;4940107;28;20524;-83
2023/12/19 10:59:18;;;;;;;4.20;1.83;;;;;;;;;;4906179;29;20852;-84
2023/12/19 11:02:02;;;;;;;4.00;1.50;;;;;;;;;;4927463;29;20652;-84
2023/12/19 11:05:05;;;;;;;2.80;1.93;;;;;;;;;;4908452;29;20474;-86
2023/12/19 11:07:51;;;;;;;1.90;1.70;;;;;;;;;;4987202;28;20496;-86
2023/12/19 11:11:05;;;;;;;7.40;2.70;;;;;;;;;;4995121;28;20871;-84
2023/12/19 11:14:23;;;;;;;3.70;2.20;;;;;;;;;;4992018;28;20528;-86
2023/12/19 11:17:19;;;;;;;5.10;1.93;;;;;;;;;;4986759;28;20455;-83
2023/12/19 11:20:14;;;;;;;1.87;1.47;;;;;;;;;;4991629;28;20513;-85
2023/12/19 11:23:10;;;;;;;2.70;1.50;;;;;;;;;;4991440;28;20477;-85
2023/12/19 11:26:20;;;;;;;4.43;1.33;;;;;;;;;;4991279;28;20477;-85
2023/12/19 11:29:29;;;;;;;3.87;1.20;;;;;;;;;;4985361;28;20462;-85
2023/12/19 11:32:25;;;;;;;5.50;1.53;;;;;;;;;;5010821;28;20450;-83
2023/12/19 11:35:21;;;;;;;5.33;1.50;;;;;;;;;;5007783;28;20457;-84
2023/12/19 11:38:19;;;;;;;;;;;;;;;;;;;;;
2023/12/19 11:44:59;;;;;;;5.57;2.27;;;;;;;;;;5006538;28;20573;-84
2023/12/19 11:47:52;;;;;;;4.20;2.03;;;;;;;;;;4981592;28;20473;-85
2023/12/19 11:50:39;;;;;;;2.90;1.67;;;;;;;;;;5007215;28;22023;-86
2023/12/19 11:53:34;;;;;;;4.33;2.07;;;;;;;;;;5017308;28;20614;-84
2023/12/19 11:56:45;;;;;;;2.10;1.47;;;;;;;;;;4957782;28;20520;-84
2023/12/19 12:00:27;;;;;;;3.50;1.90;;;;;;;;;;4991292;28;20438;-84
2023/12/19 12:02:59;;;;;;;4.67;1.23;;;;;;;;;;4966711;28;20555;-84
2023/12/19 12:06:02;;;;;;;2.20;1.60;;;;;;;;;;4965894;28;20455;-82
2023/12/19 12:09:10;;;;;;;1.87;1.60;;;;;;;;;;4969414;28;20480;-86
2023/12/19 12:12:31;;;;;;;5.80;1.73;;;;;;;;;;4951154;28;20487;-84
2023/12/19 12:15:14;;;;;;;2.67;1.40;;;;;;;;;;4954489;28;20562;-85
2023/12/19 12:21:30;;;;;;;2.40;1.20;;;;;;;;;;4953000;28;20510;-85
2023/12/19 12:24:56;;;;;;;;;;;;;;;;;;;;;
2023/12/19 12:27:56;;;;;;;2.80;1.07;;;;;;;;;;4944403;28;20455;-85
2023/12/19 12:31:00;;;;;;;1.70;1.30;;;;;;;;;;4875160;29;20471;-85
2023/12/19 12:36:42;;;;;;;3.80;1.83;;;;;;;;;;4873993;29;20472;-85
2023/12/19 12:39:39;;;;;;;1.60;1.50;;;;;;;;;;4897648;29;20442;-84
2023/12/19 12:45:12;;;;;;;4.70;2.20;;;;;;;;;;4930911;29;20459;-85
2023/12/19 12:51:43;;;;;;;3.70;2.13;;;;;;;;;;4878005;29;20579;-84
2023/12/19 12:54:29;;;;;;;2.70;1.73;;;;;;;;;;5058918;22;20524;-84
2023/12/19 12:57:15;;;;;;;4.97;1.80;;;;;;;;;;5012618;28;20452;-85
2023/12/19 13:00:41;;;;;;;2.00;1.80;;;;;;;;;;5015588;28;20500;-84
2023/12/19 13:03:26;;;;;;;2.57;2.37;;;;;;;;;;5009448;28;20471;-86
2023/12/19 13:06:15;;;;;;;4.37;2.27;;;;;;;;;;5007422;28;20453;-85
2023/12/19 13:09:28;;;;;;;4.90;3.20;;;;;;;;;;5011960;28;20449;-84
2023/12/19 13:12:04;;;;;;;4.93;2.97;;;;;;;;;;5008498;28;20476;-87
2023/12/19 13:14:55;;;;;;;5.70;2.63;;;;;;;;;;5006080;28;20474;-87
2023/12/19 13:17:33;;;;;;;2.70;1.70;;;;;;;;;;5012483;28;20493;-86
2023/12/19 13:23:31;;;;;;;1.80;1.70;;;;;;;;;;4998578;28;20520;-83
2023/12/19 13:26:13;;;;;;;1.93;1.70;;;;;;;;;;5008022;28;20446;-87
2023/12/19 13:28:57;;;;;;;3.03;2.07;;;;;;;;;;5008599;28;20435;-85
2023/12/19 13:31:51;;;;;;;;;;;;;;;;;;;;;
2023/12/19 13:34:43;;;;;;;2.37;2.27;;;;;;;;;;5006409;28;20462;-84
2023/12/19 13:37:15;;;;;;;13.77;6.27;;;;;;;;;;4999240;28;20479;-85
2023/12/19 13:40:18;;;;;;;5.13;2.63;;;;;;;;;;5002266;28;20473;-83
2023/12/19 13:43:10;;;;;;;4.03;2.60;;;;;;;;;;5000001;28;20474;-83
2023/12/19 13:45:46;;;;;;;1.83;1.73;;;;;;;;;;4995951;28;20451;-85
2023/12/19 13:48:37;;;;;;;3.20;2.23;;;;;;;;;;4997493;28;20468;-84
2023/12/19 13:51:15;;;;;;;4.70;2.10;;;;;;;;;;4996593;28;20453;-85
2023/12/19 13:54:10;;;;;;;4.10;2.33;;;;;;;;;;4983039;28;20482;-84
2023/12/19 13:56:51;;;;;;;3.80;2.43;;;;;;;;;;5001720;28;20467;-84
2023/12/19 13:59:37;;;;;;;4.83;2.37;;;;;;;;;;5002386;28;20468;-85
2023/12/19 14:05:04;;;;;;;3.40;2.20;;;;;;;;;;5001274;28;20477;-85
2023/12/19 14:08:17;;;;;;;;;;;;;;;;;;;;;
2023/12/19 14:10:57;;;;;;;6.30;3.03;;;;;;;;;;5005410;28;20880;-87
2023/12/19 14:13:37;;;;;;;2.90;2.10;;;;;;;;;;5025608;28;20466;-85
2023/12/19 14:16:26;;;;;;;4.67;2.50;;;;;;;;;;5019984;28;20461;-85
2023/12/19 14:19:20;;;;;;;3.80;2.37;;;;;;;;;;5007515;28;20504;-88
2023/12/19 14:22:13;;;;;;;6.93;2.10;;;;;;;;;;5005798;28;20472;-85
2023/12/19 14:24:51;;;;;;;5.80;3.13;;;;;;;;;;5012815;28;20504;-86
2023/12/19 14:27:35;;;;;;;4.90;2.83;;;;;;;;;;5010642;28;20496;-87
2023/12/19 14:30:13;;;;;;;4.97;3.50;;;;;;;;;;5015220;28;20454;-86
2023/12/19 14:32:52;;;;;;;2.90;2.57;;;;;;;;;;5008630;28;20485;-86
2023/12/19 14:36:03;;;;;;;3.70;2.67;;;;;;;;;;5014948;28;20461;-87
2023/12/19 14:38:46;;;;;;;;;;;;;;;;;;;;;
2023/12/19 14:41:31;;;;;;;6.30;2.60;;;;;;;;;;5035646;28;20478;-85
2023/12/19 14:44:02;;;;;;;4.00;3.13;;;;;;;;;;5018210;28;20486;-85
2023/12/19 14:46:32;;;;;;;8.30;2.60;;;;;;;;;;5015518;28;21026;-85
2023/12/19 14:49:08;;;;;;;2.87;2.63;;;;;;;;;;5016709;28;21006;-86
2023/12/19 14:51:53;;;;;;;4.47;3.00;;;;;;;;;;5013749;28;20471;-86
2023/12/19 14:54:38;;;;;;;2.33;2.13;;;;;;;;;;5015563;28;20486;-86
2023/12/19 14:57:19;;;;;;;3.20;2.73;;;;;;;;;;5015465;28;20507;-87
2023/12/19 15:03:27;;;;;;;3.80;2.50;;;;;;;;;;4928178;29;20515;-85
2023/12/19 15:06:49;;;;;;;4.53;2.90;;;;;;;;;;4922765;29;20514;-86
2023/12/19 15:13:35;;;;;;;;;;;;;;;;;;;;;
2023/12/19 15:17:20;;;;;;;3.77;2.20;;;;;;;;;;5004399;28;20559;-86
2023/12/19 15:20:16;;;;;;;2.50;2.23;;;;;;;;;;4933676;29;20585;-84
2023/12/19 15:23:06;;;;;;;5.80;3.23;;;;;;;;;;5019592;23;20604;-85
2023/12/19 15:29:14;;;;;;;2.33;2.10;;;;;;;;;;5024461;28;21134;-87
2023/12/19 15:31:48;;;;;;;2.30;2.10;;;;;;;;;;5026546;28;20457;-86
2023/12/19 15:34:22;;;;;;;2.90;2.20;;;;;;;;;;5011416;28;21240;-84
2023/12/19 15:37:33;;;;;;;;;;;;;;;;;;;;;
2023/12/19 15:40:11;;;;;;;2.20;2.00;;;;;;;;;;5040676;28;20454;-85
2023/12/19 15:43:11;;;;;;;4.80;2.50;;;;;;;;;;5029299;28;21063;-84
2023/12/19 15:46:01;;;;;;;3.00;2.30;;;;;;;;;;5012105;28;20525;-85
2023/12/19 15:48:32;;;;;;;5.60;2.70;;;;;;;;;;5010459;28;20532;-85
2023/12/19 15:51:21;;;;;;;4.70;2.60;;;;;;;;;;5025211;28;20517;-85
2023/12/19 15:57:18;;;;;;;4.17;2.67;;;;;;;;;;4971098;28;20465;-86
2023/12/19 15:59:58;;;;;;;3.10;2.70;;;;;;;;;;5023506;28;21124;-84
2023/12/19 16:02:42;;;;;;;2.87;2.50;;;;;;;;;;5009031;28;21881;-86
2023/12/19 16:05:23;;;;;;;4.60;2.47;;;;;;;;;;5024569;28;20449;-87
2023/12/19 16:08:08;;;;;;;3.97;2.97;;;;;;;;;;5015914;28;20465;-85
2023/12/19 16:10:59;;;;;;;3.17;2.70;;;;;;;;;;5019443;28;20430;-86
2023/12/19 16:13:33;;;;;;;5.37;2.50;;;;;;;;;;5006755;28;20489;-85
2023/12/19 16:16:36;;;;;;;4.43;2.30;;;;;;;;;;5019723;28;20793;-86
2023/12/19 16:19:12;;;;;;;4.77;2.90;;;;;;;;;;5016974;28;20465;-84
2023/12/19 16:21:48;;;;;;;4.67;2.87;;;;;;;;;;5005206;28;20491;-86
2023/12/19 16:24:32;;;;;;;2.60;2.40;;;;;;;;;;5007563;28;20493;-85
2023/12/19 16:30:38;;;;;;;2.60;2.40;;;;;;;;;;5010049;28;20459;-87
2023/12/19 16:33:20;;;;;;;7.00;3.03;;;;;;;;;;4883438;29;20480;-86
2023/12/19 16:35:57;;;;;;;3.37;2.20;;;;;;;;;;4926182;29;20453;-87
2023/12/19 16:38:40;;;;;;;2.83;2.50;;;;;;;;;;4941312;29;20472;-86
2023/12/19 16:41:11;;;;;;;3.43;2.40;;;;;;;;;;4944408;29;20601;-85
2023/12/19 16:44:06;;;;;;;2.43;2.20;;;;;;;;;;4943191;29;20487;-87
2023/12/19 16:46:45;;;;;;;2.77;2.30;;;;;;;;;;4922829;29;20852;-86
2023/12/19 16:49:20;;;;;;;3.53;2.10;;;;;;;;;;4937060;29;20457;-87
2023/12/19 16:51:58;;;;;;;2.83;2.23;;;;;;;;;;4943672;29;20482;-85
2023/12/19 16:54:46;;;;;;;2.27;1.70;;;;;;;;;;4941570;29;20469;-87
2023/12/19 16:57:25;;;;;;;5.83;2.50;;;;;;;;;;4950152;29;20714;-86
2023/12/19 17:00:05;;;;;;;2.43;2.10;;;;;;;;;;4944610;29;20468;-86
2023/12/19 17:02:43;;;;;;;3.57;1.73;;;;;;;;;;4946724;28;20498;-88
2023/12/19 17:05:26;;;;;;;1.90;1.67;;;;;;;;;;4947251;28;20516;-87
2023/12/19 17:08:06;;;;;;;3.87;2.30;;;;;;;;;;4951638;28;20548;-89
2023/12/19 17:10:47;;;;;;;4.80;2.30;;;;;;;;;;4988471;28;20954;-85
2023/12/19 17:13:23;;;;;;;2.30;1.90;;;;;;;;;;5027420;28;20483;-88
2023/12/19 17:16:00;;;;;;;2.70;1.90;;;;;;;;;;5011684;28;20446;-86
2023/12/19 17:18:44;;;;;;;2.40;2.13;;;;;;;;;;4995440;28;20451;-85
2023/12/19 17:21:16;;;;;;;3.20;2.47;;;;;;;;;;5016876;28;20515;-85
2023/12/19 17:24:02;;;;;;;1.77;1.60;;;;;;;;;;5030535;28;20488;-84
2023/12/19 17:26:45;;;;;;;1.90;1.70;;;;;;;;;;5011539;28;20481;-85
2023/12/19 17:29:29;;;;;;;2.57;1.83;;;;;;;;;;5028590;28;20440;-86
2023/12/19 17:32:07;;;;;;;3.30;2.37;;;;;;;;;;5015929;28;20466;-85
2023/12/19 17:34:47;;;;;;;2.03;1.50;;;;;;;;;;5030713;28;20489;-85
2023/12/19 17:37:22;;;;;;;1.77;1.60;;;;;;;;;;5027664;28;20569;-86
2023/12/19 17:40:20;;;;;;;3.60;1.77;;;;;;;;;;5041902;28;20501;-86
2023/12/19 17:43:16;;;;;;;5.10;2.60;;;;;;;;;;5027877;28;20475;-84
2023/12/19 17:46:01;;;;;;;2.50;2.20;;;;;;;;;;5036457;28;20489;-84
2023/12/19 17:48:31;;;;;;;3.30;2.83;;;;;;;;;;5012560;28;20450;-85
2023/12/19 17:51:17;;;;;;;2.47;2.20;;;;;;;;;;5039270;28;20565;-84
2023/12/19 17:54:14;;;;;;;2.93;2.47;;;;;;;;;;5029454;28;20469;-85
2023/12/19 17:57:28;;;;;;;3.20;2.33;;;;;;;;;;5044739;28;20450;-85
2023/12/19 18:00:15;;;;;;;1.83;1.70;;;;;;;;;;5014247;28;20500;-84
2023/12/19 18:02:45;;;;;;;3.23;2.07;;;;;;;;;;5014992;28;20497;-83
2023/12/19 18:05:20;;;;;;;2.20;2.00;;;;;;;;;;5029431;28;20453;-85
2023/12/19 18:07:57;;;;;;;3.77;2.13;;;;;;;;;;5015481;28;20456;-85
2023/12/19 18:10:44;;;;;;;3.40;2.20;;;;;;;;;;4999326;28;20446;-84
2023/12/19 18:13:25;;;;;;;2.30;2.10;;;;;;;;;;5012067;28;20507;-84
2023/12/19 18:16:18;;;;;;;;;;;;;;;;;;;;;
2023/12/19 18:19:21;;;;;;;2.43;2.23;;;;;;;;;;5028098;28;20474;-84
2023/12/19 18:22:19;;;;;;;2.87;2.40;;;;;;;;;;5011517;28;20869;-84
2023/12/19 18:25:09;;;;;;;3.03;1.93;;;;;;;;;;4987660;28;21086;-83
2023/12/19 18:27:45;;;;;;;2.37;2.07;;;;;;;;;;5043247;28;20430;-82
2023/12/19 18:30:33;;;;;;;2.30;2.10;;;;;;;;;;5028590;28;20465;-82
2023/12/19 18:33:16;;;;;;;2.30;2.10;;;;;;;;;;5031312;28;20529;-87
2023/12/19 18:35:58;;;;;;;3.57;2.30;;;;;;;;;;5012631;28;20516;-84
2023/12/19 18:38:58;;;;;;;3.67;2.90;;;;;;;;;;5009187;28;20465;-86
2023/12/19 18:41:47;;;;;;;4.67;2.50;;;;;;;;;;5012488;28;20544;-85
2023/12/19 18:44:40;;;;;;;3.87;2.00;;;;;;;;;;5013098;28;20556;-83
2023/12/19 18:47:26;;;;;;;2.40;2.10;;;;;;;;;;5013137;28;20483;-85
2023/12/19 18:50:00;;;;;;;3.23;2.83;;;;;;;;;;5025041;28;20485;-85
2023/12/19 18:52:32;;;;;;;3.33;2.37;;;;;;;;;;5010512;28;20473;-85
2023/12/19 18:55:07;;;;;;;3.77;2.37;;;;;;;;;;5008686;28;20473;-87
2023/12/19 18:57:44;;;;;;;4.20;3.80;;;;;;;;;;5026617;28;20515;-84
2023/12/19 19:00:19;;;;;;;3.70;3.07;;;;;;;;;;5024139;28;20484;-86
2023/12/19 19:02:49;;;;;;;4.80;2.77;;;;;;;;;;5008231;28;20603;-86
2023/12/19 19:05:30;;;;;;;4.10;3.20;;;;;;;;;;5023959;28;20473;-85
2023/12/19 19:08:06;;;;;;;3.80;3.37;;;;;;;;;;5026562;28;20454;-85
2023/12/19 19:10:36;;;;;;;5.60;3.87;;;;;;;;;;5009905;28;20503;-82
2023/12/19 19:13:11;;;;;;;5.13;3.40;;;;;;;;;;5009113;28;20923;-85
2023/12/19 19:15:52;;;;;;;3.93;3.00;;;;;;;;;;5010864;28;20519;-85
2023/12/19 19:18:33;;;;;;;5.53;3.07;;;;;;;;;;5027758;28;21683;-86
2023/12/19 19:21:18;;;;;;;5.60;2.97;;;;;;;;;;5008795;28;20971;-85
2023/12/19 19:23:53;;;;;;;3.87;3.10;;;;;;;;;;5023710;28;20609;-87
2023/12/19 19:26:25;;;;;;;4.13;3.30;;;;;;;;;;5033122;28;20454;-85
2023/12/19 19:29:07;;;;;;;3.40;3.10;;;;;;;;;;5015229;28;20434;-84
2023/12/19 19:31:51;;;;;;;4.00;3.30;;;;;;;;;;5011419;28;20452;-87
2023/12/19 19:34:28;;;;;;;3.23;2.93;;;;;;;;;;5026158;28;20489;-86
2023/12/19 19:37:15;;;;;;;4.40;3.20;;;;;;;;;;5023605;28;20521;-85
2023/12/19 19:40:21;;;;;;;4.37;3.97;;;;;;;;;;5038937;28;20549;-83
2023/12/19 19:43:15;;;;;;;5.67;3.57;;;;;;;;;;5041560;28;20482;-85
2023/12/19 19:45:46;;;;;;;4.37;3.20;;;;;;;;;;5034820;28;20437;-85
2023/12/19 19:48:25;;;;;;;4.10;3.30;;;;;;;;;;5033287;28;20466;-83
2023/12/19 19:51:00;;;;;;;4.43;3.27;;;;;;;;;;5045553;28;20660;-85
2023/12/19 19:53:34;;;;;;;4.10;3.70;;;;;;;;;;5038447;28;20472;-86
2023/12/19 19:56:11;;;;;;;6.13;3.70;;;;;;;;;;5038844;28;20451;-84
2023/12/19 19:58:55;;;;;;;3.10;2.80;;;;;;;;;;5033810;28;20525;-86
2023/12/19 20:01:31;;;;;;;4.87;3.10;;;;;;;;;;5021863;28;20814;-85
2023/12/19 20:04:11;;;;;;;2.60;2.07;;;;;;;;;;5017065;28;20480;-85
2023/12/19 20:06:50;;;;;;;2.70;2.30;;;;;;;;;;5033897;28;20458;-85
2023/12/19 20:09:25;;;;;;;2.40;2.20;;;;;;;;;;5021243;28;20446;-85
2023/12/19 20:12:21;;;;;;;2.60;2.40;;;;;;;;;;5026047;28;20451;-82
2023/12/19 20:15:06;;;;;;;2.07;1.87;;;;;;;;;;5033872;28;20469;-85
2023/12/19 20:17:36;;;;;;;2.83;1.97;;;;;;;;;;5019261;28;20462;-86
2023/12/19 20:20:12;;;;;;;2.03;1.63;;;;;;;;;;5033876;28;20506;-85
2023/12/19 20:23:01;;;;;;;1.87;1.73;;;;;;;;;;4957768;28;20502;-88
2023/12/19 20:28:07;;;;;;;2.47;2.00;;;;;;;;;;5010920;28;20461;-84